createdAt,value
2023-04-28T00:02:26.672Z,4.18
2023-04-28T00:05:12.091Z,4.32
2023-04-28T00:07:57.292Z,4.40
2023-04-28T00:10:42.786Z,4.70
2023-04-28T00:13:28.211Z,4.32
2023-04-28T00:16:13.455Z,4.67
2023-04-28T00:18:58.838Z,4.00
2023-04-28T00:21:43.558Z,4.13
2023-04-28T00:24:28.429Z,4.88
2023-04-28T00:27:13.764Z,4.20
2023-04-28T00:29:58.649Z,4.07
2023-04-28T00:32:43.996Z,3.97
2023-04-28T00:35:29.380Z,4.38
2023-04-28T00:38:14.892Z,4.40
2023-04-28T00:41:00.145Z,4.65
2023-04-28T00:43:46.408Z,4.47
2023-04-28T00:46:33.556Z,4.70
2023-04-28T00:49:18.811Z,4.38
2023-04-28T00:52:07.360Z,5.30
2023-04-28T00:54:52.707Z,4.72
2023-04-28T00:57:38.327Z,5.00
2023-04-28T01:00:23.393Z,5.15
2023-04-28T01:03:09.740Z,4.70
2023-04-28T01:05:55.706Z,5.07
2023-04-28T01:08:40.729Z,5.07
2023-04-28T01:11:25.647Z,5.33
2023-04-28T01:14:10.502Z,5.07
2023-04-28T01:16:56.512Z,5.67
2023-04-28T01:19:42.034Z,5.50
2023-04-28T01:22:27.169Z,5.57
2023-04-28T01:25:11.941Z,5.80
2023-04-28T01:27:56.740Z,5.60
2023-04-28T01:30:42.237Z,5.70
2023-04-28T01:33:27.677Z,6.03
2023-04-28T01:36:12.962Z,6.00
2023-04-28T01:38:58.158Z,5.67
2023-04-28T01:41:43.129Z,6.05
2023-04-28T01:44:28.625Z,5.80
2023-04-28T01:47:13.890Z,6.27
2023-04-28T01:49:58.755Z,6.10
2023-04-28T01:52:44.263Z,6.30
2023-04-28T01:55:47.872Z,6.15
2023-04-28T01:58:32.788Z,6.28
2023-04-28T02:01:18.192Z,6.15
2023-04-28T02:04:03.606Z,5.97
2023-04-28T02:06:48.824Z,6.50
2023-04-28T02:09:34.224Z,6.63
2023-04-28T02:12:19.606Z,6.50
2023-04-28T02:15:05.374Z,6.63
2023-04-28T02:17:50.734Z,6.90
2023-04-28T02:20:36.166Z,6.75
2023-04-28T02:23:20.947Z,6.88
2023-04-28T02:26:06.155Z,6.85
2023-04-28T02:28:51.428Z,6.80
2023-04-28T02:31:36.544Z,7.13
2023-04-28T02:34:21.920Z,6.90
2023-04-28T02:37:06.867Z,7.30
2023-04-28T02:39:52.177Z,8.07
2023-04-28T02:42:37.056Z,7.50
2023-04-28T02:45:22.006Z,7.25
2023-04-28T02:48:06.912Z,7.20
2023-04-28T02:50:52.545Z,7.23
2023-04-28T02:53:37.615Z,7.53
2023-04-28T02:56:22.664Z,7.23
2023-04-28T02:59:07.680Z,6.95
2023-04-28T03:01:52.616Z,7.68
2023-04-28T03:04:38.327Z,7.57
2023-04-28T03:07:23.620Z,7.97
2023-04-28T03:10:09.061Z,7.30
2023-04-28T03:12:53.897Z,7.93
2023-04-28T03:15:39.231Z,8.20
2023-04-28T03:18:24.280Z,7.85
2023-04-28T03:21:09.241Z,8.23
2023-04-28T03:23:54.255Z,7.68
2023-04-28T03:26:39.093Z,7.57
2023-04-28T03:29:24.109Z,8.07
2023-04-28T03:32:09.618Z,7.63
2023-04-28T03:34:54.835Z,7.50
2023-04-28T03:37:40.069Z,8.25
2023-04-28T03:40:25.188Z,7.95
2023-04-28T03:43:10.617Z,7.60
2023-04-28T03:45:55.788Z,7.93
2023-04-28T03:48:40.829Z,8.02
2023-04-28T03:51:25.718Z,7.80
2023-04-28T03:54:10.785Z,7.70
2023-04-28T03:56:56.007Z,8.10
2023-04-28T03:59:41.291Z,8.20
2023-04-28T04:02:26.279Z,8.38
2023-04-28T04:05:11.473Z,7.90
2023-04-28T04:07:56.858Z,8.32
2023-04-28T04:10:41.644Z,8.25
2023-04-28T04:13:26.689Z,9.13
2023-04-28T04:16:12.232Z,8.30
2023-04-28T04:18:57.502Z,8.55
2023-04-28T04:21:42.441Z,8.52
2023-04-28T04:24:27.326Z,8.07
2023-04-28T04:27:12.620Z,8.05
2023-04-28T04:29:57.950Z,8.32
2023-04-28T04:32:42.950Z,8.98
2023-04-28T04:35:28.484Z,8.80
2023-04-28T04:38:13.650Z,8.60
2023-04-28T04:40:58.495Z,8.68
2023-04-28T04:43:43.356Z,8.65
2023-04-28T04:46:28.401Z,8.68
2023-04-28T04:49:13.701Z,9.50
2023-04-28T04:51:58.529Z,8.60
2023-04-28T04:54:43.931Z,9.23
2023-04-28T04:57:28.784Z,8.93
2023-04-28T05:00:14.149Z,9.13
2023-04-28T05:02:59.177Z,9.07
2023-04-28T05:05:46.202Z,8.50
2023-04-28T05:08:31.503Z,8.65
2023-04-28T05:11:16.597Z,8.57
2023-04-28T05:14:01.781Z,8.95
2023-04-28T05:16:47.092Z,9.15
2023-04-28T05:19:32.095Z,10.02
2023-04-28T05:22:17.510Z,9.25
2023-04-28T05:25:03.011Z,10.02
2023-04-28T05:27:48.343Z,9.20
2023-04-28T05:30:33.937Z,9.50
2023-04-28T05:33:19.131Z,9.07
2023-04-28T05:36:04.738Z,9.00
2023-04-28T05:38:49.863Z,13.45
2023-04-28T05:41:35.626Z,10.02
2023-04-28T05:44:20.795Z,9.60
2023-04-28T05:47:06.542Z,9.27
2023-04-28T05:49:51.550Z,9.65
2023-04-28T05:52:36.481Z,9.85
2023-04-28T05:55:22.073Z,9.52
2023-04-28T05:58:07.319Z,9.63
2023-04-28T06:00:52.476Z,9.57
2023-04-28T06:03:38.025Z,10.18
2023-04-28T06:06:23.510Z,10.52
2023-04-28T06:09:08.726Z,12.00
2023-04-28T06:11:54.090Z,10.60
2023-04-28T06:14:39.394Z,11.25
2023-04-28T06:17:24.892Z,11.43
2023-04-28T06:20:10.320Z,11.70
2023-04-28T06:22:55.240Z,11.55
2023-04-28T06:25:40.292Z,10.95
2023-04-28T06:28:25.837Z,12.27
2023-04-28T06:31:10.996Z,11.77
2023-04-28T06:33:56.239Z,11.93
2023-04-28T06:36:41.483Z,12.20
2023-04-28T06:39:28.078Z,12.00
2023-04-28T06:42:13.012Z,12.38
2023-04-28T06:44:57.917Z,11.57
2023-04-28T06:47:43.352Z,11.82
2023-04-28T06:50:29.104Z,12.15
2023-04-28T06:53:14.386Z,11.07
2023-04-28T06:55:59.322Z,12.05
2023-04-28T06:58:44.513Z,11.30
2023-04-28T07:01:29.739Z,12.18
2023-04-28T07:04:15.304Z,12.82
2023-04-28T07:07:00.461Z,11.60
2023-04-28T07:09:45.922Z,12.38
2023-04-28T07:12:31.248Z,11.77
2023-04-28T07:15:16.111Z,12.23
2023-04-28T07:18:01.109Z,11.27
2023-04-28T07:20:46.595Z,11.88
2023-04-28T07:23:31.762Z,12.88
2023-04-28T07:26:16.970Z,12.63
2023-04-28T07:29:02.503Z,11.77
2023-04-28T07:31:47.856Z,12.05
2023-04-28T07:34:33.162Z,12.35
2023-04-28T07:37:18.433Z,12.27
2023-04-28T07:40:04.397Z,11.30
2023-04-28T07:42:49.572Z,11.95
2023-04-28T07:45:39.186Z,11.52
2023-04-28T07:48:24.608Z,11.25
2023-04-28T07:51:09.749Z,12.15
2023-04-28T07:53:54.733Z,12.43
2023-04-28T07:56:39.684Z,11.52
2023-04-28T07:59:24.932Z,11.77
2023-04-28T08:02:09.897Z,12.05
2023-04-28T08:04:55.299Z,11.75
2023-04-28T08:07:40.480Z,11.95
2023-04-28T08:10:25.841Z,11.63
2023-04-28T08:13:11.851Z,12.23
2023-04-28T08:15:56.832Z,13.80
2023-04-28T08:18:42.265Z,11.32
2023-04-28T08:21:27.621Z,10.27
2023-04-28T08:24:12.572Z,10.40
2023-04-28T08:26:57.612Z,10.20
2023-04-28T08:29:43.203Z,10.13
2023-04-28T08:32:28.408Z,10.10
2023-04-28T08:35:13.950Z,10.38
2023-04-28T08:37:59.305Z,10.43
2023-04-28T08:40:44.585Z,11.27
2023-04-28T08:43:29.668Z,9.38
2023-04-28T08:46:18.248Z,10.13
2023-04-28T08:49:06.319Z,10.82
2023-04-28T08:52:00.193Z,10.43
2023-04-28T08:54:49.238Z,10.55
2023-04-28T08:57:55.837Z,9.80
2023-04-28T09:00:41.009Z,9.60
2023-04-28T09:03:26.753Z,10.07
2023-04-28T09:06:12.052Z,10.75
2023-04-28T09:09:17.946Z,10.32
2023-04-28T09:12:03.763Z,10.57
2023-04-28T09:14:58.235Z,10.73
2023-04-28T09:17:50.499Z,11.30
2023-04-28T09:20:36.756Z,12.15
2023-04-28T09:23:24.349Z,13.63
2023-04-28T09:26:09.704Z,14.27
2023-04-28T09:29:11.938Z,13.45
2023-04-28T09:32:14.757Z,14.50
2023-04-28T09:35:00.256Z,15.13
2023-04-28T09:37:45.698Z,15.35
2023-04-28T09:40:30.835Z,15.30
2023-04-28T09:43:35.375Z,13.80
2023-04-28T09:46:29.173Z,13.80
2023-04-28T09:49:14.760Z,13.52
2023-04-28T09:52:13.523Z,14.52
2023-04-28T09:55:02.836Z,13.43
2023-04-28T09:57:50.261Z,12.90
2023-04-28T10:00:36.678Z,11.98
2023-04-28T10:03:29.409Z,11.98
2023-04-28T10:06:15.468Z,12.35
2023-04-28T10:09:01.638Z,11.77
2023-04-28T10:11:47.337Z,11.48
2023-04-28T10:14:33.195Z,11.85
2023-04-28T10:17:18.486Z,12.25
2023-04-28T10:20:04.912Z,11.77
2023-04-28T10:22:55.756Z,11.80
2023-04-28T10:25:42.621Z,12.00
2023-04-28T10:28:27.738Z,11.52
2023-04-28T10:31:14.163Z,11.00
2023-04-28T10:34:22.208Z,11.93
2023-04-28T10:37:07.247Z,11.57
2023-04-28T10:40:30.675Z,11.80
2023-04-28T10:43:27.816Z,12.48
2023-04-28T10:46:13.153Z,12.13
2023-04-28T10:48:58.585Z,12.63
2023-04-28T10:51:43.937Z,12.18
2023-04-28T10:54:29.333Z,11.85
2023-04-28T10:57:15.502Z,11.95
2023-04-28T11:00:29.617Z,12.20
2023-04-28T11:03:42.906Z,11.45
2023-04-28T11:06:54.377Z,11.60
2023-04-28T11:09:39.165Z,11.15
2023-04-28T11:12:24.765Z,12.00
2023-04-28T11:15:13.208Z,10.63
2023-04-28T11:17:59.376Z,11.57
2023-04-28T11:20:55.186Z,10.85
2023-04-28T11:23:40.520Z,11.10
2023-04-28T11:26:27.763Z,10.50
2023-04-28T11:29:13.004Z,10.75
2023-04-28T11:31:58.120Z,10.23
2023-04-28T11:34:51.844Z,10.80
2023-04-28T11:37:36.728Z,10.70
2023-04-28T11:40:22.136Z,11.68
2023-04-28T11:43:07.548Z,11.07
2023-04-28T11:45:52.504Z,11.20
2023-04-28T11:48:38.271Z,11.00
2023-04-28T11:51:29.383Z,11.80
2023-04-28T11:54:21.123Z,10.88
2023-04-28T11:57:06.424Z,10.95
2023-04-28T11:59:51.736Z,10.57
2023-04-28T12:02:37.365Z,10.95
2023-04-28T12:05:22.685Z,11.00
2023-04-28T12:08:08.079Z,10.80
2023-04-28T12:11:13.324Z,11.82
2023-04-28T12:14:06.875Z,11.30
2023-04-28T12:16:52.440Z,11.70
2023-04-28T12:19:44.379Z,10.95
2023-04-28T12:22:30.233Z,11.40
2023-04-28T12:25:17.192Z,10.63
2023-04-28T12:28:08.394Z,10.10
2023-04-28T12:31:04.638Z,11.23
2023-04-28T12:33:49.677Z,10.77
2023-04-28T12:36:34.558Z,10.83
2023-04-28T12:39:19.917Z,10.82
2023-04-28T12:42:04.763Z,11.02
2023-04-28T12:44:50.221Z,11.52
2023-04-28T12:47:36.652Z,11.55
2023-04-28T12:50:21.720Z,10.80
2023-04-28T12:53:07.212Z,11.15
2023-04-28T12:55:53.711Z,11.07
2023-04-28T12:58:39.235Z,10.88
2023-04-28T13:01:24.488Z,11.40
2023-04-28T13:04:10.274Z,11.10
2023-04-28T13:06:55.563Z,11.75
2023-04-28T13:09:41.419Z,11.55
2023-04-28T13:12:26.903Z,11.48
2023-04-28T13:15:12.307Z,11.25
2023-04-28T13:17:57.617Z,11.52
2023-04-28T13:21:03.555Z,11.73
2023-04-28T13:23:48.843Z,12.15
2023-04-28T13:26:33.797Z,11.90
2023-04-28T13:29:19.112Z,11.95
2023-04-28T13:32:04.749Z,12.05
2023-04-28T13:34:50.862Z,11.20
2023-04-28T13:37:36.431Z,11.45
2023-04-28T13:40:21.854Z,11.40
2023-04-28T13:43:07.083Z,11.35
2023-04-28T13:45:53.357Z,12.15
2023-04-28T13:48:40.098Z,10.73
2023-04-28T13:51:25.079Z,11.73
2023-04-28T13:54:11.106Z,12.10
2023-04-28T13:56:57.134Z,11.48
2023-04-28T13:59:42.604Z,12.15
2023-04-28T14:02:27.981Z,12.45
2023-04-28T14:05:13.470Z,13.45
2023-04-28T14:07:58.930Z,13.10
2023-04-28T14:10:44.486Z,14.05
2023-04-28T14:13:29.724Z,14.20
2023-04-28T14:16:14.619Z,14.50
2023-04-28T14:19:00.000Z,15.73
2023-04-28T14:21:45.466Z,15.73
2023-04-28T14:24:30.605Z,16.52
2023-04-28T14:27:15.472Z,16.13
2023-04-28T14:30:00.803Z,15.75
2023-04-28T14:32:45.813Z,16.75
2023-04-28T14:35:31.068Z,15.70
2023-04-28T14:38:16.460Z,16.65
2023-04-28T14:41:01.768Z,18.27
2023-04-28T14:43:47.135Z,17.73
2023-04-28T14:46:32.525Z,16.90
2023-04-28T14:49:17.931Z,15.60
2023-04-28T14:52:02.782Z,14.63
2023-04-28T14:54:51.179Z,14.70
2023-04-28T14:57:36.121Z,14.43
2023-04-28T15:00:21.058Z,14.75
2023-04-28T15:03:06.688Z,16.23
2023-04-28T15:05:52.499Z,16.15
2023-04-28T15:08:37.871Z,15.43
2023-04-28T15:11:22.949Z,15.00
2023-04-28T15:14:08.209Z,14.57
2023-04-28T15:16:53.142Z,14.50
2023-04-28T15:19:38.834Z,13.75
2023-04-28T15:22:24.225Z,14.60
2023-04-28T15:25:09.729Z,14.63
2023-04-28T15:27:55.179Z,15.00
2023-04-28T15:30:40.566Z,14.82
2023-04-28T15:33:25.836Z,14.68
2023-04-28T15:36:12.341Z,15.50
2023-04-28T15:38:57.347Z,14.43
2023-04-28T15:41:42.855Z,14.70
2023-04-28T15:44:30.423Z,15.05
2023-04-28T15:47:15.683Z,15.40
2023-04-28T15:50:01.003Z,16.90
2023-04-28T15:52:46.152Z,16.10
2023-04-28T15:55:31.458Z,17.63
2023-04-28T15:58:16.906Z,20.10
2023-04-28T16:01:01.784Z,19.63
2023-04-28T16:03:48.309Z,21.02
2023-04-28T16:06:33.526Z,20.42
2023-04-28T16:09:19.068Z,20.63
2023-04-28T16:12:04.480Z,20.58
2023-04-28T16:14:49.939Z,21.50
2023-04-28T16:17:36.302Z,21.08
2023-04-28T16:20:21.495Z,21.65
2023-04-28T16:23:07.193Z,21.55
2023-04-28T16:25:52.518Z,21.33
2023-04-28T16:28:37.421Z,21.65
2023-04-28T16:31:22.887Z,21.70
2023-04-28T16:34:08.010Z,21.88
2023-04-28T16:36:52.937Z,23.08
2023-04-28T16:39:37.791Z,22.58
2023-04-28T16:42:23.240Z,21.55
2023-04-28T16:45:09.103Z,22.17
2023-04-28T16:47:54.230Z,21.55
2023-04-28T16:50:40.862Z,22.15
2023-04-28T16:53:26.032Z,22.40
2023-04-28T16:56:11.514Z,21.52
2023-04-28T16:58:56.935Z,22.27
2023-04-28T17:01:41.950Z,20.55
2023-04-28T17:04:27.998Z,20.88
2023-04-28T17:07:13.188Z,16.77
2023-04-28T17:09:58.635Z,17.08
2023-04-28T17:12:44.149Z,13.63
2023-04-28T17:15:29.014Z,13.70
2023-04-28T17:18:14.339Z,13.98
2023-04-28T17:20:59.211Z,12.88
2023-04-28T17:23:44.237Z,11.77
2023-04-28T17:26:30.359Z,12.50
2023-04-28T17:29:15.641Z,12.45
2023-04-28T17:32:01.020Z,11.32
2023-04-28T17:34:46.352Z,10.43
2023-04-28T17:37:32.946Z,10.60
2023-04-28T17:40:18.242Z,10.05
2023-04-28T17:43:03.330Z,10.07
2023-04-28T17:45:48.847Z,10.10
2023-04-28T17:48:34.134Z,6.85
2023-04-28T17:51:20.513Z,7.15
2023-04-28T17:54:05.875Z,6.22
2023-04-28T17:56:51.339Z,6.07
2023-04-28T17:59:36.711Z,5.88
2023-04-28T18:02:22.022Z,6.20
2023-04-28T18:05:08.136Z,5.60
2023-04-28T18:07:53.225Z,6.68
2023-04-28T18:10:38.451Z,6.20
2023-04-28T18:13:23.924Z,6.38
2023-04-28T18:16:09.241Z,6.05
2023-04-28T18:18:54.555Z,6.15
2023-04-28T18:21:39.847Z,6.13
2023-04-28T18:24:25.426Z,6.32
2023-04-28T18:27:11.039Z,6.32
2023-04-28T18:29:56.241Z,6.03
2023-04-28T18:32:41.811Z,6.07
2023-04-28T18:35:26.881Z,7.13
2023-04-28T18:38:11.877Z,6.82
2023-04-28T18:40:58.066Z,7.05
2023-04-28T18:43:43.499Z,6.47
2023-04-28T18:46:28.979Z,7.00
2023-04-28T18:49:14.180Z,6.90
2023-04-28T18:51:59.489Z,7.15
2023-04-28T18:54:44.470Z,7.13
2023-04-28T18:57:29.767Z,6.93
2023-04-28T19:00:15.771Z,6.90
2023-04-28T19:03:00.942Z,7.43
2023-04-28T19:05:46.559Z,7.47
2023-04-28T19:08:31.502Z,7.55
2023-04-28T19:11:17.047Z,7.40
2023-04-28T19:14:02.326Z,7.70
2023-04-28T19:16:47.664Z,8.20
2023-04-28T19:19:33.176Z,8.45
2023-04-28T19:22:37.196Z,10.00
2023-04-28T19:25:22.350Z,9.75
2023-04-28T19:28:07.235Z,9.65
2023-04-28T19:30:53.420Z,9.73
2023-04-28T19:33:38.580Z,9.88
2023-04-28T19:36:23.333Z,10.10
2023-04-28T19:39:08.114Z,9.85
2023-04-28T19:41:52.939Z,9.60
2023-04-28T19:44:38.424Z,9.85
2023-04-28T19:47:27.610Z,9.73
2023-04-28T19:50:12.794Z,9.57
2023-04-28T19:52:57.974Z,9.57
2023-04-28T19:55:42.797Z,10.52
2023-04-28T19:58:27.635Z,10.45
2023-04-28T20:01:12.726Z,9.75
2023-04-28T20:03:58.101Z,10.38
2023-04-28T20:06:43.506Z,10.70
2023-04-28T20:09:28.397Z,11.55
2023-04-28T20:12:14.139Z,11.55
2023-04-28T20:14:59.505Z,12.32
2023-04-28T20:17:44.651Z,13.02
2023-04-28T20:20:30.062Z,13.18
2023-04-28T20:23:15.369Z,13.88
2023-04-28T20:26:02.169Z,14.52
2023-04-28T20:28:47.436Z,16.27
2023-04-28T20:31:33.029Z,16.65
2023-04-28T20:34:18.284Z,16.48
2023-04-28T20:37:03.767Z,17.02
2023-04-28T20:39:48.784Z,18.15
2023-04-28T20:42:33.985Z,17.67
2023-04-28T20:45:18.827Z,18.40
2023-04-28T20:48:04.149Z,19.05
2023-04-28T20:50:49.317Z,19.58
2023-04-28T20:53:34.534Z,19.00
2023-04-28T20:56:19.752Z,18.08
2023-04-28T20:59:04.508Z,17.75
2023-04-28T21:01:49.388Z,16.95
2023-04-28T21:04:34.899Z,18.35
2023-04-28T21:07:19.614Z,16.92
2023-04-28T21:10:04.883Z,16.77
2023-04-28T21:12:49.881Z,16.38
2023-04-28T21:15:41.982Z,16.67
2023-04-28T21:18:27.380Z,16.67
2023-04-28T21:21:13.327Z,16.60
2023-04-28T21:23:58.585Z,17.45
2023-04-28T21:26:43.506Z,16.98
2023-04-28T21:29:28.479Z,16.95
2023-04-28T21:32:13.928Z,17.60
2023-04-28T21:34:59.477Z,18.23
2023-04-28T21:37:45.126Z,17.77
2023-04-28T21:40:30.514Z,18.08
2023-04-28T21:43:16.538Z,17.52
2023-04-28T21:46:01.945Z,17.98
2023-04-28T21:48:47.389Z,17.13
2023-04-28T21:51:32.525Z,17.75
2023-04-28T21:54:17.457Z,17.55
2023-04-28T21:57:02.871Z,17.48
2023-04-28T21:59:48.579Z,18.10
2023-04-28T22:02:34.405Z,17.10
2023-04-28T22:05:20.212Z,16.55
2023-04-28T22:08:05.394Z,16.50
2023-04-28T22:10:50.891Z,16.85
2023-04-28T22:13:36.058Z,16.75
2023-04-28T22:16:21.812Z,16.83
2023-04-28T22:19:07.191Z,17.15
2023-04-28T22:21:52.627Z,18.88
2023-04-28T22:24:38.077Z,19.45
2023-04-28T22:27:23.601Z,19.65
2023-04-28T22:30:09.593Z,19.95
2023-04-28T22:32:54.938Z,20.25
2023-04-28T22:35:40.354Z,19.45
2023-04-28T22:38:25.718Z,20.10
2023-04-28T22:41:10.871Z,20.58
2023-04-28T22:43:56.301Z,20.52
2023-04-28T22:46:41.708Z,19.65
2023-04-28T22:49:27.234Z,19.95
2023-04-28T22:52:12.495Z,19.33
2023-04-28T22:54:58.442Z,18.80
2023-04-28T22:57:43.418Z,19.55
2023-04-28T23:00:29.001Z,18.15
2023-04-28T23:03:13.986Z,17.20
2023-04-28T23:05:59.627Z,17.33
2023-04-28T23:08:44.646Z,16.55
2023-04-28T23:11:29.990Z,17.38
2023-04-28T23:14:15.418Z,16.90
2023-04-28T23:17:00.267Z,16.70
2023-04-28T23:19:45.705Z,17.58
2023-04-28T23:22:30.643Z,17.05
2023-04-28T23:25:15.936Z,16.58
2023-04-28T23:28:01.380Z,17.92
2023-04-28T23:30:46.755Z,17.30
2023-04-28T23:33:32.098Z,19.25
2023-04-28T23:36:17.536Z,18.17
2023-04-28T23:39:03.008Z,18.40
2023-04-28T23:41:48.131Z,20.30
2023-04-28T23:44:33.627Z,20.23
2023-04-28T23:47:19.112Z,21.50
2023-04-28T23:50:04.771Z,21.15
2023-04-28T23:52:50.084Z,20.50
2023-04-28T23:55:35.585Z,22.38
2023-04-28T23:58:20.933Z,22.25
